Sydnee Taylor — WDD4807 — position and weather

sailwx.info

Track history (hours):
 
Tides and Currents Weather Stations Pressure Air Temp Water Temp Dewpoint Dewpoint Depression Visibility Wind Speed Wind Dir Waves Ship Positions

Sydnee Taylor

Owner: Florida Marine, LLC, Mandeville, LA. More information available from US FCC via Universal Licensing System and Coast Guard Vessel Documentation Center.

Last reported at 2018-Jun-20 17:00 UTC. Time now 2018-Jun-20 17:18 UTC.
Position N 29°48' W 092°14'.

Length 27 m; draft 2.6 m.

Type: Towing. MMSI: 367149340.

Date/timePositionNaut miles runAvg speedWind from/ knotsBaromVisibWave heightAir tempDewpointWater temp
2018-Jun-20 17:00N 29°48' W 092°14'0 0.0
2018-Jun-20 16:30N 29°48' W 092°14'1 1.7
2018-Jun-20 16:00N 29°48' W 092°15'2 4.4
2018-Jun-20 15:30N 29°49' W 092°18'2 3.3
2018-Jun-20 15:00N 29°50' W 092°19'2 3.9
2018-Jun-20 14:30N 29°51' W 092°21'2 4.2
2018-Jun-20 13:59N 29°53' W 092°23'36 4.3
2018-Jun-20 05:25N 29°56' W 093°05'2 4.2
2018-Jun-20 05:00N 29°56' W 093°07'2 3.3
2018-Jun-20 04:30N 29°56' W 093°09'2 4.0
2018-Jun-20 04:00N 29°57' W 093°11'2 4.4
2018-Jun-20 03:30N 29°59' W 093°12'1 2.9
2018-Jun-20 03:00N 29°60' W 093°13'1 2.9
2018-Jun-20 02:30N 30°01' W 093°14'2 3.4
2018-Jun-20 02:00N 30°02' W 093°16'2 3.4
2018-Jun-20 01:30N 30°04' W 093°16'2 3.3
2018-Jun-20 01:00N 30°05' W 093°17'0 0.8
2018-Jun-20 00:30N 30°05' W 093°18'0 0.9
2018-Jun-20 00:00N 30°06' W 093°18'0 0.6
2018-Jun-19 23:30N 30°06' W 093°18'1 1.2
2018-Jun-19 23:00N 30°06' W 093°19'0 0.3
2018-Jun-19 22:30N 30°06' W 093°19'0 0.0
2018-Jun-19 22:00N 30°06' W 093°19'0 0.1
2018-Jun-19 21:30N 30°06' W 093°19'0 0.0
2018-Jun-19 21:00N 30°06' W 093°19'0 0.0
2018-Jun-19 20:30N 30°06' W 093°19'0 0.0
2018-Jun-19 20:00N 30°06' W 093°19'0 0.0
2018-Jun-19 19:30N 30°06' W 093°19'0 0.0
2018-Jun-19 18:59N 30°06' W 093°19'0 0.0
2018-Jun-19 18:30N 30°06' W 093°19'0 0.0
2018-Jun-19 18:00N 30°06' W 093°19'0 0.0
2018-Jun-19 17:30N 30°06' W 093°19'0 0.0
2018-Jun-19 17:00N 30°06' W 093°19'0 0.0
2018-Jun-19 16:30N 30°06' W 093°19'0 0.0
2018-Jun-19 16:00N 30°06' W 093°19'0 0.0
2018-Jun-19 15:30N 30°06' W 093°19'0 0.0
2018-Jun-19 15:00N 30°06' W 093°19'0 0.0
2018-Jun-19 14:30N 30°06' W 093°19'0 0.0
2018-Jun-19 14:00N 30°06' W 093°19'0 0.0
2018-Jun-19 13:30N 30°06' W 093°19'0 0.0
2018-Jun-19 13:00N 30°06' W 093°19'0 0.0
2018-Jun-19 12:30N 30°06' W 093°19'0 0.0
2018-Jun-19 12:00N 30°06' W 093°19'0 0.0
2018-Jun-19 11:30N 30°06' W 093°19'0 0.0
2018-Jun-19 11:00N 30°06' W 093°19'2 3.1
2018-Jun-19 10:30N 30°05' W 093°20'2 4.1
2018-Jun-19 10:00N 30°04' W 093°22'2 4.3
2018-Jun-19 09:30N 30°04' W 093°24'0 0.0
2018-Jun-19 09:00N 30°04' W 093°24'0 0.0
2018-Jun-19 08:30N 30°04' W 093°24'0 0.0
2018-Jun-19 08:00N 30°04' W 093°24'0 0.0
2018-Jun-19 07:30N 30°04' W 093°24'0 0.0
2018-Jun-19 07:00N 30°04' W 093°24'0 0.0
2018-Jun-19 06:31N 30°04' W 093°24'0 0.0
2018-Jun-19 06:00N 30°04' W 093°24'0 0.0
2018-Jun-19 05:29N 30°04' W 093°24'0 0.0
2018-Jun-19 05:00N 30°04' W 093°24'0 0.0
2018-Jun-19 04:29N 30°04' W 093°24'0 0.0
2018-Jun-19 04:00N 30°04' W 093°24'0 0.0
2018-Jun-19 03:30N 30°04' W 093°24'0 0.0
2018-Jun-19 03:00N 30°04' W 093°24'0 0.0
2018-Jun-19 02:28N 30°04' W 093°24'0 0.0
2018-Jun-19 02:00N 30°04' W 093°24'0 0.2
2018-Jun-19 01:30N 30°04' W 093°25'0 0.2
2018-Jun-19 01:00N 30°04' W 093°25'0 0.3
2018-Jun-19 00:30N 30°04' W 093°25'1 1.7
2018-Jun-19 00:00N 30°04' W 093°26'2 3.5
2018-Jun-18 23:30N 30°04' W 093°28'2 3.6
2018-Jun-18 23:00N 30°04' W 093°30'2 3.7
2018-Jun-18 22:30N 30°04' W 093°32'2 4.0
2018-Jun-18 22:00N 30°04' W 093°34'2 4.1
2018-Jun-18 21:30N 30°04' W 093°37'2 4.7
2018-Jun-18 21:00N 30°04' W 093°39'2 4.8
2018-Jun-18 20:30N 30°03' W 093°42'1 2.3
2018-Jun-18 20:00N 30°03' W 093°44'1 1.2
2018-Jun-18 19:30N 30°03' W 093°44'2 3.8
2018-Jun-18 19:00N 30°01' W 093°45'2 4.3
2018-Jun-18 18:30N 29°60' W 093°47'3 6.6
2018-Jun-18 18:00N 29°58' W 093°51'2 3.2
2018-Jun-18 17:30N 29°59' W 093°52'2 4.5
2018-Jun-18 17:00N 29°59' W 093°55'2 4.2
2018-Jun-18 16:30N 30°00' W 093°57'2 3.5
2018-Jun-18 16:00N 30°01' W 093°59'0 0.2
2018-Jun-18 15:30N 30°01' W 093°59'0 0.3
2018-Jun-18 15:00N 30°01' W 093°59'0 0.0
2018-Jun-18 14:30N 30°01' W 093°59'0 0.0
2018-Jun-18 14:00N 30°01' W 093°59'0 0.0
2018-Jun-18 13:30N 30°01' W 093°59'0 0.0
2018-Jun-18 13:00N 30°01' W 093°59'0 0.0
2018-Jun-18 12:30N 30°01' W 093°59'0 0.0
2018-Jun-18 12:00N 30°01' W 093°59'0 0.0
2018-Jun-18 11:30N 30°01' W 093°59'0 0.0
2018-Jun-18 11:00N 30°01' W 093°59'0 0.0
2018-Jun-18 10:30N 30°01' W 093°59'0 0.0
2018-Jun-18 10:00N 30°01' W 093°59'0 0.0
2018-Jun-18 09:30N 30°01' W 093°59'0 0.0
2018-Jun-18 09:00N 30°01' W 093°59'0 0.0
2018-Jun-18 08:30N 30°01' W 093°59'0 0.0
2018-Jun-18 08:00N 30°01' W 093°59'0 0.0
2018-Jun-18 07:30N 30°01' W 093°59'0 0.0
2018-Jun-18 07:00N 30°01' W 093°59'0 0.0
2018-Jun-18 06:30N 30°01' W 093°59'0 0.0
2018-Jun-18 06:00N 30°01' W 093°59'0 0.0
2018-Jun-18 05:30N 30°01' W 093°59'0 0.0
2018-Jun-18 05:00N 30°01' W 093°59'0 0.0
2018-Jun-18 04:30N 30°01' W 093°59'0 0.0
2018-Jun-18 04:00N 30°01' W 093°59'0 0.0
2018-Jun-18 03:30N 30°01' W 093°59'0 0.0
2018-Jun-18 03:00N 30°01' W 093°59'0 0.0
2018-Jun-18 02:30N 30°01' W 093°59'0 0.0
2018-Jun-18 02:00N 30°01' W 093°59'0 0.0
2018-Jun-18 01:30N 30°01' W 093°59'0 0.0
2018-Jun-18 01:00N 30°01' W 093°59'0 0.0
2018-Jun-18 00:30N 30°01' W 093°59'0 0.0
2018-Jun-18 00:00N 30°01' W 093°59'0 0.0
2018-Jun-17 23:30N 30°01' W 093°59'0 0.0
2018-Jun-17 23:00N 30°01' W 093°59'1 1.5
2018-Jun-17 22:30N 30°01' W 093°59'0 0.0
2018-Jun-17 22:00N 30°01' W 093°59'0 0.7
2018-Jun-17 21:30N 30°01' W 093°59'0 0.0
2018-Jun-17 21:00N 30°01' W 093°59'0 0.0
2018-Jun-17 20:30N 30°01' W 093°59'0 0.0
2018-Jun-17 20:00N 30°01' W 093°59'0 0.0
2018-Jun-17 19:30N 30°01' W 093°59'0 0.0
2018-Jun-17 19:00N 30°01' W 093°59'0 0.0
2018-Jun-17 18:30N 30°01' W 093°59'0 0.0
2018-Jun-17 18:00N 30°01' W 093°59'0 0.0
2018-Jun-17 17:30N 30°01' W 093°59'0 0.0
2018-Jun-17 17:00N 30°01' W 093°59'0 0.0
2018-Jun-17 16:30N 30°01' W 093°59'0 0.0
2018-Jun-17 16:00N 30°01' W 093°59'0 0.0
2018-Jun-17 15:30N 30°01' W 093°59'0 0.0
2018-Jun-17 15:00N 30°01' W 093°59'0 0.0
2018-Jun-17 14:30N 30°01' W 093°59'0 0.0
2018-Jun-17 14:00N 30°01' W 093°59'0 0.0
2018-Jun-17 13:30N 30°01' W 093°59'0 0.0
2018-Jun-17 13:00N 30°01' W 093°59'0 0.0
2018-Jun-17 12:30N 30°01' W 093°59'0 0.0
2018-Jun-17 12:00N 30°01' W 093°59'0 0.0
2018-Jun-17 11:30N 30°01' W 093°59'0 0.0
2018-Jun-17 11:00N 30°01' W 093°59'0 0.0
2018-Jun-17 10:30N 30°01' W 093°59'0 0.0
2018-Jun-17 10:00N 30°01' W 093°59'0 0.0
2018-Jun-17 09:30N 30°01' W 093°59'0 0.0
2018-Jun-17 09:00N 30°01' W 093°59'0 0.0
2018-Jun-17 08:30N 30°01' W 093°59'0 0.0
2018-Jun-17 08:00N 30°01' W 093°59'0 0.0
2018-Jun-17 07:30N 30°01' W 093°59'0 0.0
2018-Jun-17 07:00N 30°01' W 093°59'0 0.0
2018-Jun-17 06:30N 30°01' W 093°59'0 0.0
2018-Jun-17 06:00N 30°01' W 093°59'0 0.0
2018-Jun-17 05:30N 30°01' W 093°59'0 0.0
2018-Jun-17 05:00N 30°01' W 093°59'0 0.0
2018-Jun-17 04:30N 30°01' W 093°59'0 0.0
2018-Jun-17 04:00N 30°01' W 093°59'0 0.0
2018-Jun-17 03:30N 30°01' W 093°59'0 0.0
2018-Jun-17 03:00N 30°01' W 093°59'0 0.0
2018-Jun-17 02:30N 30°01' W 093°59'0 0.0
2018-Jun-17 02:00N 30°01' W 093°59'0 0.6
2018-Jun-17 01:30N 30°01' W 093°59'0 0.5
2018-Jun-17 01:00N 30°01' W 093°59'1 1.1
2018-Jun-17 00:30N 30°01' W 093°58'3 6.9
2018-Jun-17 00:00N 29°59' W 093°55'4 7.1
2018-Jun-16 23:30N 29°58' W 093°51'4 7.0
2018-Jun-16 23:00N 29°60' W 093°47'3 6.5
2018-Jun-16 22:30N 30°02' W 093°44'3 5.6
2018-Jun-16 22:00N 30°04' W 093°42'3 6.1
2018-Jun-16 21:30N 30°04' W 093°38'3 6.3
2018-Jun-16 21:00N 30°04' W 093°35'3 6.2
2018-Jun-16 20:30N 30°04' W 093°31'3 6.3
2018-Jun-16 20:00N 30°04' W 093°27'3 6.3
2018-Jun-16 19:30N 30°04' W 093°24'2 4.6
2018-Jun-16 19:00N 30°04' W 093°21'1 2.4
2018-Jun-16 18:30N 30°05' W 093°20'2 4.1
2018-Jun-16 18:00N 30°06' W 093°18'1 2.5
2018-Jun-16 17:30N 30°05' W 093°17'1 2.3
2018-Jun-16 16:59N 30°04' W 093°16'1 1.6
2018-Jun-16 16:30N 30°04' W 093°16'0 0.0
2018-Jun-16 16:00N 30°04' W 093°16'0 0.0
2018-Jun-16 15:30N 30°04' W 093°16'0 0.0
2018-Jun-16 15:00N 30°04' W 093°16'0 0.0
2018-Jun-16 14:30N 30°04' W 093°16'0 0.0
2018-Jun-16 14:00N 30°04' W 093°16'0 0.0
2018-Jun-16 13:30N 30°04' W 093°16'0 0.0
2018-Jun-16 13:00N 30°04' W 093°16'0 0.1
2018-Jun-16 12:30N 30°04' W 093°16'1 1.0
2018-Jun-16 12:00N 30°03' W 093°16'3 5.3
2018-Jun-16 11:30N 30°01' W 093°14'3 5.5
2018-Jun-16 11:00N 29°59' W 093°12'0 0.4
2018-Jun-16 10:30N 29°59' W 093°12'0 0.0
2018-Jun-16 09:59N 29°59' W 093°12'0 0.0
2018-Jun-16 09:30N 29°59' W 093°12'0 0.0
2018-Jun-16 09:00N 29°59' W 093°12'0 0.0
2018-Jun-16 08:30N 29°59' W 093°12'0 0.0
2018-Jun-16 08:00N 29°59' W 093°12'0 0.0
2018-Jun-16 07:30N 29°59' W 093°12'0 0.0
2018-Jun-16 07:00N 29°59' W 093°12'0 0.0
2018-Jun-16 06:30N 29°59' W 093°12'0 0.0
2018-Jun-16 06:00N 29°59' W 093°12'0 0.0
2018-Jun-16 05:29N 29°59' W 093°12'0 0.0
2018-Jun-16 04:57N 29°59' W 093°12'0 0.0
2018-Jun-16 04:30N 29°59' W 093°12'0 0.0
2018-Jun-16 04:00N 29°59' W 093°12'0 0.0
2018-Jun-16 03:30N 29°59' W 093°12'0 0.0
2018-Jun-16 02:56N 29°59' W 093°12'0 0.0
2018-Jun-16 02:27N 29°59' W 093°12'0 0.0
2018-Jun-16 02:00N 29°59' W 093°12'2 4.7
2018-Jun-16 01:30N 29°57' W 093°10'2 4.8
2018-Jun-16 01:00N 29°56' W 093°07'35 1.7
2018-Jun-15 04:56N 29°54' W 092°28'3 5.9
2018-Jun-15 04:30N 29°53' W 092°25'3 5.5
2018-Jun-15 03:59N 29°52' W 092°22'2 3.7
2018-Jun-15 03:30N 29°51' W 092°20'3 5.2
2018-Jun-15 03:00N 29°50' W 092°18'3 5.9
2018-Jun-15 02:30N 29°48' W 092°15'2 4.5
2018-Jun-15 02:00N 29°47' W 092°12'1 2.4
2018-Jun-15 01:30N 29°47' W 092°11'2 4.2
2018-Jun-15 01:00N 29°47' W 092°09'3 6.7
2018-Jun-15 00:30N 29°48' W 092°05'3 6.5
2018-Jun-15 00:00N 29°49' W 092°01'3 6.5
2018-Jun-14 23:30N 29°50' W 091°58'  
2018-Jun-11 12:22N 29°51' W 091°55'2 4.6
2018-Jun-11 12:00N 29°51' W 091°56'2 4.7
2018-Jun-11 11:30N 29°50' W 091°59'2 4.5
2018-Jun-11 11:00N 29°49' W 092°02'3 4.8
2018-Jun-11 10:29N 29°48' W 092°04'2 5.1
2018-Jun-11 10:00N 29°48' W 092°07'2 4.8
2018-Jun-11 09:30N 29°47' W 092°10'2 3.3
2018-Jun-11 09:00N 29°47' W 092°11'1 2.1
2018-Jun-11 08:30N 29°47' W 092°13'2 3.1
2018-Jun-11 08:00N 29°48' W 092°14'0 0.1
2018-Jun-11 07:30N 29°48' W 092°14'0 0.0
2018-Jun-11 06:59N 29°48' W 092°14'0 0.0
2018-Jun-11 06:30N 29°48' W 092°14'0 0.0
2018-Jun-11 06:00N 29°48' W 092°14'0 0.0
2018-Jun-11 05:30N 29°48' W 092°14'1 1.5
2018-Jun-11 05:00N 29°48' W 092°15'1 1.6
2018-Jun-11 04:30N 29°48' W 092°16'1 1.6
2018-Jun-11 04:00N 29°49' W 092°17'0 0.4
2018-Jun-11 03:30N 29°49' W 092°17'0 0.0
2018-Jun-11 03:00N 29°49' W 092°17'0 0.0
2018-Jun-11 02:30N 29°49' W 092°17'0 0.3
2018-Jun-11 02:00N 29°49' W 092°17'2 3.9
2018-Jun-11 01:30N 29°50' W 092°19'2 4.3
2018-Jun-11 01:00N 29°51' W 092°21'2 4.1
2018-Jun-11 00:30N 29°52' W 092°23'  
Track history (hours):
 
Tides and Currents Weather Stations Pressure Air Temp Water Temp Dewpoint Dewpoint Depression Visibility Wind Speed Wind Dir Waves Ship Positions

Sydnee Taylor

Owner: Florida Marine, LLC, Mandeville, LA. More information available from US FCC via Universal Licensing System and Coast Guard Vessel Documentation Center.

Last reported at 2018-Jun-20 17:00 UTC. Time now 2018-Jun-20 17:18 UTC.
Position N 29°48' W 092°14'.

Length 27 m; draft 2.6 m.

Type: Towing. MMSI: 367149340.

Date/timePositionNaut miles runAvg speedWind from/ knotsBaromVisibWave heightAir tempDewpointWater temp
2018-Jun-20 17:00N 29°48' W 092°14'0 0.0
2018-Jun-20 16:30N 29°48' W 092°14'1 1.7
2018-Jun-20 16:00N 29°48' W 092°15'2 4.4
2018-Jun-20 15:30N 29°49' W 092°18'2 3.3
2018-Jun-20 15:00N 29°50' W 092°19'2 3.9
2018-Jun-20 14:30N 29°51' W 092°21'2 4.2
2018-Jun-20 13:59N 29°53' W 092°23'36 4.3
2018-Jun-20 05:25N 29°56' W 093°05'2 4.2
2018-Jun-20 05:00N 29°56' W 093°07'2 3.3
2018-Jun-20 04:30N 29°56' W 093°09'2 4.0
2018-Jun-20 04:00N 29°57' W 093°11'2 4.4
2018-Jun-20 03:30N 29°59' W 093°12'1 2.9
2018-Jun-20 03:00N 29°60' W 093°13'1 2.9
2018-Jun-20 02:30N 30°01' W 093°14'2 3.4
2018-Jun-20 02:00N 30°02' W 093°16'2 3.4
2018-Jun-20 01:30N 30°04' W 093°16'2 3.3
2018-Jun-20 01:00N 30°05' W 093°17'0 0.8
2018-Jun-20 00:30N 30°05' W 093°18'0 0.9
2018-Jun-20 00:00N 30°06' W 093°18'0 0.6
2018-Jun-19 23:30N 30°06' W 093°18'1 1.2
2018-Jun-19 23:00N 30°06' W 093°19'0 0.3
2018-Jun-19 22:30N 30°06' W 093°19'0 0.0
2018-Jun-19 22:00N 30°06' W 093°19'0 0.1
2018-Jun-19 21:30N 30°06' W 093°19'0 0.0
2018-Jun-19 21:00N 30°06' W 093°19'0 0.0
2018-Jun-19 20:30N 30°06' W 093°19'0 0.0
2018-Jun-19 20:00N 30°06' W 093°19'0 0.0
2018-Jun-19 19:30N 30°06' W 093°19'0 0.0
2018-Jun-19 18:59N 30°06' W 093°19'0 0.0
2018-Jun-19 18:30N 30°06' W 093°19'0 0.0
2018-Jun-19 18:00N 30°06' W 093°19'0 0.0
2018-Jun-19 17:30N 30°06' W 093°19'0 0.0
2018-Jun-19 17:00N 30°06' W 093°19'0 0.0
2018-Jun-19 16:30N 30°06' W 093°19'0 0.0
2018-Jun-19 16:00N 30°06' W 093°19'0 0.0
2018-Jun-19 15:30N 30°06' W 093°19'0 0.0
2018-Jun-19 15:00N 30°06' W 093°19'0 0.0
2018-Jun-19 14:30N 30°06' W 093°19'0 0.0
2018-Jun-19 14:00N 30°06' W 093°19'0 0.0
2018-Jun-19 13:30N 30°06' W 093°19'0 0.0
2018-Jun-19 13:00N 30°06' W 093°19'0 0.0
2018-Jun-19 12:30N 30°06' W 093°19'0 0.0
2018-Jun-19 12:00N 30°06' W 093°19'0 0.0
2018-Jun-19 11:30N 30°06' W 093°19'0 0.0
2018-Jun-19 11:00N 30°06' W 093°19'2 3.1
2018-Jun-19 10:30N 30°05' W 093°20'2 4.1
2018-Jun-19 10:00N 30°04' W 093°22'2 4.3
2018-Jun-19 09:30N 30°04' W 093°24'0 0.0
2018-Jun-19 09:00N 30°04' W 093°24'0 0.0
2018-Jun-19 08:30N 30°04' W 093°24'0 0.0
2018-Jun-19 08:00N 30°04' W 093°24'0 0.0
2018-Jun-19 07:30N 30°04' W 093°24'0 0.0
2018-Jun-19 07:00N 30°04' W 093°24'0 0.0
2018-Jun-19 06:31N 30°04' W 093°24'0 0.0
2018-Jun-19 06:00N 30°04' W 093°24'0 0.0
2018-Jun-19 05:29N 30°04' W 093°24'0 0.0
2018-Jun-19 05:00N 30°04' W 093°24'0 0.0
2018-Jun-19 04:29N 30°04' W 093°24'0 0.0
2018-Jun-19 04:00N 30°04' W 093°24'0 0.0
2018-Jun-19 03:30N 30°04' W 093°24'0 0.0
2018-Jun-19 03:00N 30°04' W 093°24'0 0.0
2018-Jun-19 02:28N 30°04' W 093°24'0 0.0
2018-Jun-19 02:00N 30°04' W 093°24'0 0.2
2018-Jun-19 01:30N 30°04' W 093°25'0 0.2
2018-Jun-19 01:00N 30°04' W 093°25'0 0.3
2018-Jun-19 00:30N 30°04' W 093°25'1 1.7
2018-Jun-19 00:00N 30°04' W 093°26'2 3.5
2018-Jun-18 23:30N 30°04' W 093°28'2 3.6
2018-Jun-18 23:00N 30°04' W 093°30'2 3.7
2018-Jun-18 22:30N 30°04' W 093°32'2 4.0
2018-Jun-18 22:00N 30°04' W 093°34'2 4.1
2018-Jun-18 21:30N 30°04' W 093°37'2 4.7
2018-Jun-18 21:00N 30°04' W 093°39'2 4.8
2018-Jun-18 20:30N 30°03' W 093°42'1 2.3
2018-Jun-18 20:00N 30°03' W 093°44'1 1.2
2018-Jun-18 19:30N 30°03' W 093°44'2 3.8
2018-Jun-18 19:00N 30°01' W 093°45'2 4.3
2018-Jun-18 18:30N 29°60' W 093°47'3 6.6
2018-Jun-18 18:00N 29°58' W 093°51'2 3.2
2018-Jun-18 17:30N 29°59' W 093°52'2 4.5
2018-Jun-18 17:00N 29°59' W 093°55'2 4.2
2018-Jun-18 16:30N 30°00' W 093°57'2 3.5
2018-Jun-18 16:00N 30°01' W 093°59'0 0.2
2018-Jun-18 15:30N 30°01' W 093°59'0 0.3
2018-Jun-18 15:00N 30°01' W 093°59'0 0.0
2018-Jun-18 14:30N 30°01' W 093°59'0 0.0
2018-Jun-18 14:00N 30°01' W 093°59'0 0.0
2018-Jun-18 13:30N 30°01' W 093°59'0 0.0
2018-Jun-18 13:00N 30°01' W 093°59'0 0.0
2018-Jun-18 12:30N 30°01' W 093°59'0 0.0
2018-Jun-18 12:00N 30°01' W 093°59'0 0.0
2018-Jun-18 11:30N 30°01' W 093°59'0 0.0
2018-Jun-18 11:00N 30°01' W 093°59'0 0.0
2018-Jun-18 10:30N 30°01' W 093°59'0 0.0
2018-Jun-18 10:00N 30°01' W 093°59'0 0.0
2018-Jun-18 09:30N 30°01' W 093°59'0 0.0
2018-Jun-18 09:00N 30°01' W 093°59'0 0.0
2018-Jun-18 08:30N 30°01' W 093°59'0 0.0
2018-Jun-18 08:00N 30°01' W 093°59'0 0.0
2018-Jun-18 07:30N 30°01' W 093°59'0 0.0
2018-Jun-18 07:00N 30°01' W 093°59'0 0.0
2018-Jun-18 06:30N 30°01' W 093°59'0 0.0
2018-Jun-18 06:00N 30°01' W 093°59'0 0.0
2018-Jun-18 05:30N 30°01' W 093°59'0 0.0
2018-Jun-18 05:00N 30°01' W 093°59'0 0.0
2018-Jun-18 04:30N 30°01' W 093°59'0 0.0
2018-Jun-18 04:00N 30°01' W 093°59'0 0.0
2018-Jun-18 03:30N 30°01' W 093°59'0 0.0
2018-Jun-18 03:00N 30°01' W 093°59'0 0.0
2018-Jun-18 02:30N 30°01' W 093°59'0 0.0
2018-Jun-18 02:00N 30°01' W 093°59'0 0.0
2018-Jun-18 01:30N 30°01' W 093°59'0 0.0
2018-Jun-18 01:00N 30°01' W 093°59'0 0.0
2018-Jun-18 00:30N 30°01' W 093°59'0 0.0
2018-Jun-18 00:00N 30°01' W 093°59'0 0.0
2018-Jun-17 23:30N 30°01' W 093°59'0 0.0
2018-Jun-17 23:00N 30°01' W 093°59'1 1.5
2018-Jun-17 22:30N 30°01' W 093°59'0 0.0
2018-Jun-17 22:00N 30°01' W 093°59'0 0.7
2018-Jun-17 21:30N 30°01' W 093°59'0 0.0
2018-Jun-17 21:00N 30°01' W 093°59'0 0.0
2018-Jun-17 20:30N 30°01' W 093°59'0 0.0
2018-Jun-17 20:00N 30°01' W 093°59'0 0.0
2018-Jun-17 19:30N 30°01' W 093°59'0 0.0
2018-Jun-17 19:00N 30°01' W 093°59'0 0.0
2018-Jun-17 18:30N 30°01' W 093°59'0 0.0
2018-Jun-17 18:00N 30°01' W 093°59'0 0.0
2018-Jun-17 17:30N 30°01' W 093°59'0 0.0
2018-Jun-17 17:00N 30°01' W 093°59'0 0.0
2018-Jun-17 16:30N 30°01' W 093°59'0 0.0
2018-Jun-17 16:00N 30°01' W 093°59'0 0.0
2018-Jun-17 15:30N 30°01' W 093°59'0 0.0
2018-Jun-17 15:00N 30°01' W 093°59'0 0.0
2018-Jun-17 14:30N 30°01' W 093°59'0 0.0
2018-Jun-17 14:00N 30°01' W 093°59'0 0.0
2018-Jun-17 13:30N 30°01' W 093°59'0 0.0
2018-Jun-17 13:00N 30°01' W 093°59'0 0.0
2018-Jun-17 12:30N 30°01' W 093°59'0 0.0
2018-Jun-17 12:00N 30°01' W 093°59'0 0.0
2018-Jun-17 11:30N 30°01' W 093°59'0 0.0
2018-Jun-17 11:00N 30°01' W 093°59'0 0.0
2018-Jun-17 10:30N 30°01' W 093°59'0 0.0
2018-Jun-17 10:00N 30°01' W 093°59'0 0.0
2018-Jun-17 09:30N 30°01' W 093°59'0 0.0
2018-Jun-17 09:00N 30°01' W 093°59'0 0.0
2018-Jun-17 08:30N 30°01' W 093°59'0 0.0
2018-Jun-17 08:00N 30°01' W 093°59'0 0.0
2018-Jun-17 07:30N 30°01' W 093°59'0 0.0
2018-Jun-17 07:00N 30°01' W 093°59'0 0.0
2018-Jun-17 06:30N 30°01' W 093°59'0 0.0
2018-Jun-17 06:00N 30°01' W 093°59'0 0.0
2018-Jun-17 05:30N 30°01' W 093°59'0 0.0
2018-Jun-17 05:00N 30°01' W 093°59'0 0.0
2018-Jun-17 04:30N 30°01' W 093°59'0 0.0
2018-Jun-17 04:00N 30°01' W 093°59'0 0.0
2018-Jun-17 03:30N 30°01' W 093°59'0 0.0
2018-Jun-17 03:00N 30°01' W 093°59'0 0.0
2018-Jun-17 02:30N 30°01' W 093°59'0 0.0
2018-Jun-17 02:00N 30°01' W 093°59'0 0.6
2018-Jun-17 01:30N 30°01' W 093°59'0 0.5
2018-Jun-17 01:00N 30°01' W 093°59'1 1.1
2018-Jun-17 00:30N 30°01' W 093°58'3 6.9
2018-Jun-17 00:00N 29°59' W 093°55'4 7.1
2018-Jun-16 23:30N 29°58' W 093°51'4 7.0
2018-Jun-16 23:00N 29°60' W 093°47'3 6.5
2018-Jun-16 22:30N 30°02' W 093°44'3 5.6
2018-Jun-16 22:00N 30°04' W 093°42'3 6.1
2018-Jun-16 21:30N 30°04' W 093°38'3 6.3
2018-Jun-16 21:00N 30°04' W 093°35'3 6.2
2018-Jun-16 20:30N 30°04' W 093°31'3 6.3
2018-Jun-16 20:00N 30°04' W 093°27'3 6.3
2018-Jun-16 19:30N 30°04' W 093°24'2 4.6
2018-Jun-16 19:00N 30°04' W 093°21'1 2.4
2018-Jun-16 18:30N 30°05' W 093°20'2 4.1
2018-Jun-16 18:00N 30°06' W 093°18'1 2.5
2018-Jun-16 17:30N 30°05' W 093°17'1 2.3
2018-Jun-16 16:59N 30°04' W 093°16'1 1.6
2018-Jun-16 16:30N 30°04' W 093°16'0 0.0
2018-Jun-16 16:00N 30°04' W 093°16'0 0.0
2018-Jun-16 15:30N 30°04' W 093°16'0 0.0
2018-Jun-16 15:00N 30°04' W 093°16'0 0.0
2018-Jun-16 14:30N 30°04' W 093°16'0 0.0
2018-Jun-16 14:00N 30°04' W 093°16'0 0.0
2018-Jun-16 13:30N 30°04' W 093°16'0 0.0
2018-Jun-16 13:00N 30°04' W 093°16'0 0.1
2018-Jun-16 12:30N 30°04' W 093°16'1 1.0
2018-Jun-16 12:00N 30°03' W 093°16'3 5.3
2018-Jun-16 11:30N 30°01' W 093°14'3 5.5
2018-Jun-16 11:00N 29°59' W 093°12'0 0.4
2018-Jun-16 10:30N 29°59' W 093°12'0 0.0
2018-Jun-16 09:59N 29°59' W 093°12'0 0.0
2018-Jun-16 09:30N 29°59' W 093°12'0 0.0
2018-Jun-16 09:00N 29°59' W 093°12'0 0.0
2018-Jun-16 08:30N 29°59' W 093°12'0 0.0
2018-Jun-16 08:00N 29°59' W 093°12'0 0.0
2018-Jun-16 07:30N 29°59' W 093°12'0 0.0
2018-Jun-16 07:00N 29°59' W 093°12'0 0.0
2018-Jun-16 06:30N 29°59' W 093°12'0 0.0
2018-Jun-16 06:00N 29°59' W 093°12'0 0.0
2018-Jun-16 05:29N 29°59' W 093°12'0 0.0
2018-Jun-16 04:57N 29°59' W 093°12'0 0.0
2018-Jun-16 04:30N 29°59' W 093°12'0 0.0
2018-Jun-16 04:00N 29°59' W 093°12'0 0.0
2018-Jun-16 03:30N 29°59' W 093°12'0 0.0
2018-Jun-16 02:56N 29°59' W 093°12'0 0.0
2018-Jun-16 02:27N 29°59' W 093°12'0 0.0
2018-Jun-16 02:00N 29°59' W 093°12'2 4.7
2018-Jun-16 01:30N 29°57' W 093°10'2 4.8
2018-Jun-16 01:00N 29°56' W 093°07'35 1.7
2018-Jun-15 04:56N 29°54' W 092°28'3 5.9
2018-Jun-15 04:30N 29°53' W 092°25'3 5.5
2018-Jun-15 03:59N 29°52' W 092°22'2 3.7
2018-Jun-15 03:30N 29°51' W 092°20'3 5.2
2018-Jun-15 03:00N 29°50' W 092°18'3 5.9
2018-Jun-15 02:30N 29°48' W 092°15'2 4.5
2018-Jun-15 02:00N 29°47' W 092°12'1 2.4
2018-Jun-15 01:30N 29°47' W 092°11'2 4.2
2018-Jun-15 01:00N 29°47' W 092°09'3 6.7
2018-Jun-15 00:30N 29°48' W 092°05'3 6.5
2018-Jun-15 00:00N 29°49' W 092°01'3 6.5
2018-Jun-14 23:30N 29°50' W 091°58'  
2018-Jun-11 12:22N 29°51' W 091°55'2 4.6
2018-Jun-11 12:00N 29°51' W 091°56'2 4.7
2018-Jun-11 11:30N 29°50' W 091°59'2 4.5
2018-Jun-11 11:00N 29°49' W 092°02'3 4.8
2018-Jun-11 10:29N 29°48' W 092°04'2 5.1
2018-Jun-11 10:00N 29°48' W 092°07'2 4.8
2018-Jun-11 09:30N 29°47' W 092°10'2 3.3
2018-Jun-11 09:00N 29°47' W 092°11'1 2.1
2018-Jun-11 08:30N 29°47' W 092°13'2 3.1
2018-Jun-11 08:00N 29°48' W 092°14'0 0.1
2018-Jun-11 07:30N 29°48' W 092°14'0 0.0
2018-Jun-11 06:59N 29°48' W 092°14'0 0.0
2018-Jun-11 06:30N 29°48' W 092°14'0 0.0
2018-Jun-11 06:00N 29°48' W 092°14'0 0.0
2018-Jun-11 05:30N 29°48' W 092°14'1 1.5
2018-Jun-11 05:00N 29°48' W 092°15'1 1.6
2018-Jun-11 04:30N 29°48' W 092°16'1 1.6
2018-Jun-11 04:00N 29°49' W 092°17'0 0.4
2018-Jun-11 03:30N 29°49' W 092°17'0 0.0
2018-Jun-11 03:00N 29°49' W 092°17'0 0.0
2018-Jun-11 02:30N 29°49' W 092°17'0 0.3
2018-Jun-11 02:00N 29°49' W 092°17'2 3.9
2018-Jun-11 01:30N 29°50' W 092°19'2 4.3
2018-Jun-11 01:00N 29°51' W 092°21'2 4.1
2018-Jun-11 00:30N 29°52' W 092°23'  

Dump ship's entire track history